Time;durP1;ratioP1;P1;durP2;ratioP2;P2;SDS_P1;SDS_P2;PMS_P1;PMS_P2;Temp;Humidity;BMP_temperature;BMP_pressure;BME280_temperature;BME280_humidity;BME280_pressure;Samples;Min_cycle;Max_cycle;Signal;HPM_P1;HPM_P2
2021/12/27 00:01:41;;;;;;;28.23;15.82;;;2.90;99.90;;;;;;4987121;28;20080;-88
2021/12/27 00:04:10;;;;;;;38.53;19.00;;;3.00;99.90;;;;;;5004013;28;20052;-88
2021/12/27 00:06:35;;;;;;;28.85;16.27;;;3.00;99.90;;;;;;5003854;28;20036;-88
2021/12/27 00:09:01;;;;;;;29.60;17.02;;;3.00;99.90;;;;;;4987059;28;20026;-88
2021/12/27 00:11:27;;;;;;;37.15;18.45;;;2.90;99.90;;;;;;5003362;28;20037;-88
2021/12/27 00:13:53;;;;;;;34.75;17.52;;;3.00;99.90;;;;;;4987185;28;20040;-88
2021/12/27 00:16:19;;;;;;;31.92;17.98;;;2.90;99.90;;;;;;5019574;28;20064;-88
2021/12/27 00:18:45;;;;;;;33.75;17.58;;;3.00;99.90;;;;;;4987055;28;20022;-88
2021/12/27 00:21:11;;;;;;;29.58;17.00;;;3.00;99.90;;;;;;5002880;28;20026;-88
2021/12/27 00:23:37;;;;;;;32.47;17.42;;;3.00;99.90;;;;;;5018892;28;20041;-88
2021/12/27 00:26:04;;;;;;;30.05;17.73;;;3.00;99.90;;;;;;5018292;28;20022;-88
2021/12/27 00:28:30;;;;;;;34.00;18.17;;;3.00;99.90;;;;;;5019496;28;20033;-88
2021/12/27 00:30:57;;;;;;;28.80;17.75;;;3.00;99.90;;;;;;5019591;28;20040;-88
2021/12/27 00:33:23;;;;;;;31.02;17.23;;;3.00;99.90;;;;;;4987148;28;20030;-87
2021/12/27 00:35:50;;;;;;;27.10;16.75;;;3.00;99.90;;;;;;5019251;28;20533;-88
2021/12/27 00:38:16;;;;;;;32.70;18.92;;;3.00;99.90;;;;;;5019205;28;20010;-88
2021/12/27 00:40:41;;;;;;;31.00;18.15;;;3.10;99.90;;;;;;5019037;28;20089;-88
2021/12/27 00:43:07;;;;;;;32.58;16.95;;;3.00;99.90;;;;;;5002770;28;20109;-88
2021/12/27 00:45:33;;;;;;;31.45;19.02;;;3.00;99.90;;;;;;5002872;28;20025;-88
2021/12/27 00:47:59;;;;;;;30.33;17.48;;;3.00;99.90;;;;;;4986679;28;20037;-88
2021/12/27 00:50:26;;;;;;;32.15;16.83;;;3.00;99.90;;;;;;5018857;28;20083;-88
2021/12/27 00:52:51;;;;;;;30.10;17.75;;;3.10;99.90;;;;;;5002436;28;20091;-88
2021/12/27 00:55:18;;;;;;;32.25;18.50;;;3.10;99.90;;;;;;5002720;28;20022;-88
2021/12/27 00:58:12;;;;;;;30.08;16.40;;;3.10;99.90;;;;;;5019026;28;20051;-88
2021/12/27 01:00:38;;;;;;;29.35;16.98;;;3.10;99.90;;;;;;5018743;28;20022;-87
2021/12/27 01:03:04;;;;;;;32.65;17.70;;;3.10;99.90;;;;;;5018522;28;20047;-88
2021/12/27 01:05:30;;;;;;;29.85;17.25;;;3.10;99.90;;;;;;5018382;28;20063;-88
2021/12/27 01:07:56;;;;;;;29.88;17.00;;;3.10;99.90;;;;;;5002368;28;20033;-88
2021/12/27 01:16:10;;;;;;;32.00;17.17;;;3.10;99.90;;;;;;5005647;28;20040;-87
2021/12/27 01:18:48;;;;;;;32.47;18.65;;;3.10;99.90;;;;;;5018423;28;20025;-88
2021/12/27 01:21:20;;;;;;;32.58;16.75;;;3.10;99.90;;;;;;5018372;28;20024;-88
2021/12/27 01:23:47;;;;;;;35.78;18.10;;;3.20;99.90;;;;;;5018098;28;20399;-87
2021/12/27 01:26:13;;;;;;;31.20;17.25;;;3.10;99.90;;;;;;4986028;28;20029;-88
2021/12/27 01:28:46;;;;;;;30.20;17.25;;;3.10;99.90;;;;;;5018153;28;20030;-87
2021/12/27 01:31:13;;;;;;;33.97;18.85;;;3.20;99.90;;;;;;5002327;28;20041;-88
2021/12/27 01:33:40;;;;;;;28.65;18.00;;;3.20;99.90;;;;;;5018269;28;20037;-88
2021/12/27 01:36:07;;;;;;;32.45;18.45;;;3.20;99.90;;;;;;5002113;28;20034;-88
2021/12/27 01:38:36;;;;;;;32.67;18.08;;;3.20;99.90;;;;;;5034664;28;20025;-88
2021/12/27 01:41:03;;;;;;;29.05;17.67;;;3.10;99.90;;;;;;5033925;28;20475;-88
2021/12/27 01:43:31;;;;;;;32.22;17.98;;;3.20;99.90;;;;;;5017859;28;20455;-88
2021/12/27 01:46:04;;;;;;;32.60;16.88;;;3.30;99.90;;;;;;5017825;28;20075;-88
2021/12/27 01:48:36;;;;;;;32.47;17.98;;;3.20;99.90;;;;;;5017835;28;20025;-88
2021/12/27 01:51:04;;;;;;;34.65;18.15;;;3.20;99.90;;;;;;5017679;28;20060;-88
2021/12/27 01:53:32;;;;;;;31.27;17.77;;;3.20;99.90;;;;;;5017660;28;20036;-88
2021/12/27 01:55:59;;;;;;;32.85;17.48;;;3.20;99.90;;;;;;5001474;28;20072;-88
2021/12/27 01:58:26;;;;;;;31.98;18.90;;;3.20;99.90;;;;;;5001501;28;20037;-88
2021/12/27 02:00:57;;;;;;;36.70;19.10;;;3.20;99.90;;;;;;5001472;28;20026;-88
2021/12/27 02:03:26;;;;;;;31.83;17.20;;;3.20;99.90;;;;;;5017570;28;20021;-88
2021/12/27 02:05:52;;;;;;;40.42;20.17;;;3.20;99.90;;;;;;5035244;28;20097;-88
2021/12/27 02:08:18;;;;;;;36.63;18.55;;;3.20;99.90;;;;;;5017642;28;20045;-88
2021/12/27 02:10:44;;;;;;;33.13;18.17;;;3.20;99.90;;;;;;5017371;28;20137;-88
2021/12/27 02:13:10;;;;;;;32.92;18.20;;;3.20;99.90;;;;;;5001090;28;20026;-88
2021/12/27 02:15:37;;;;;;;34.53;19.20;;;3.20;99.90;;;;;;5017716;28;20472;-88
2021/12/27 02:18:04;;;;;;;37.95;18.45;;;3.20;99.90;;;;;;5001194;28;20081;-88
2021/12/27 02:20:32;;;;;;;33.97;18.27;;;3.30;99.90;;;;;;5033908;28;20032;-88
2021/12/27 02:26:21;;;;;;;29.80;17.15;;;3.30;99.90;;;;;;5047776;28;20068;-88
2021/12/27 02:28:47;;;;;;;34.42;19.20;;;3.30;99.90;;;;;;5019360;28;20025;-89
2021/12/27 02:31:15;;;;;;;36.08;19.73;;;3.30;99.90;;;;;;5018910;28;20528;-88
2021/12/27 02:33:42;;;;;;;31.50;17.13;;;3.30;99.90;;;;;;5035486;28;20029;-88
2021/12/27 02:36:11;;;;;;;29.92;17.13;;;3.30;99.90;;;;;;5035327;28;20052;-88
2021/12/27 02:38:39;;;;;;;32.40;18.30;;;3.30;99.90;;;;;;5052228;28;20532;-88
2021/12/27 02:41:06;;;;;;;35.92;19.73;;;3.30;99.90;;;;;;5036728;28;20025;-88
2021/12/27 02:43:32;;;;;;;34.55;18.38;;;3.40;99.90;;;;;;5020400;28;20040;-88
2021/12/27 02:46:04;;;;;;;37.15;19.42;;;3.30;99.90;;;;;;5036741;28;20021;-88
2021/12/27 02:48:34;;;;;;;34.13;17.83;;;3.30;99.90;;;;;;5052691;28;20029;-89
2021/12/27 02:51:00;;;;;;;33.10;18.77;;;3.40;99.90;;;;;;5054375;28;20143;-88
2021/12/27 02:53:28;;;;;;;28.60;17.00;;;3.40;99.90;;;;;;5036298;28;20040;-88
2021/12/27 02:55:56;;;;;;;30.70;17.05;;;3.30;99.90;;;;;;5020609;28;20027;-88
2021/12/27 02:58:40;;;;;;;29.38;17.48;;;3.40;99.90;;;;;;5036546;28;20028;-89
2021/12/27 03:01:09;;;;;;;30.02;17.15;;;3.40;99.90;;;;;;5036427;28;20470;-88
2021/12/27 03:03:36;;;;;;;27.15;16.33;;;3.40;99.90;;;;;;5052834;28;20021;-88
2021/12/27 03:06:03;;;;;;;31.52;18.15;;;3.40;99.90;;;;;;5036319;28;20040;-88
2021/12/27 03:08:29;;;;;;;32.33;18.45;;;3.40;99.90;;;;;;5036183;28;20025;-88
2021/12/27 03:10:57;;;;;;;31.55;17.58;;;3.40;99.90;;;;;;5036523;28;20143;-89
2021/12/27 03:13:26;;;;;;;33.65;18.73;;;3.50;99.90;;;;;;5053995;28;20021;-88
2021/12/27 03:15:57;;;;;;;31.25;18.45;;;3.50;99.90;;;;;;5036339;28;20059;-88
2021/12/27 03:18:23;;;;;;;31.63;17.00;;;3.40;99.90;;;;;;5051983;28;20082;-88
2021/12/27 03:20:50;;;;;;;30.95;16.98;;;3.50;99.90;;;;;;5036213;28;20040;-88
2021/12/27 03:23:16;;;;;;;31.27;17.45;;;3.50;99.90;;;;;;5036222;28;20029;-88
2021/12/27 03:25:41;;;;;;;30.67;17.02;;;3.50;99.90;;;;;;5032138;28;20167;-88
2021/12/27 03:28:08;;;;;;;32.70;17.83;;;3.50;99.90;;;;;;5035684;28;20082;-88
2021/12/27 03:30:34;;;;;;;29.25;16.90;;;3.50;99.90;;;;;;5019518;28;20025;-88
2021/12/27 03:33:00;;;;;;;30.85;17.17;;;3.50;99.90;;;;;;5036267;28;20021;-88
2021/12/27 03:35:29;;;;;;;30.52;16.65;;;3.50;99.90;;;;;;5019824;28;20035;-88
2021/12/27 03:37:58;;;;;;;28.13;16.92;;;3.50;99.90;;;;;;5020532;28;20098;-88
2021/12/27 03:40:25;;;;;;;28.40;16.83;;;3.50;99.90;;;;;;5036188;28;20052;-88
2021/12/27 03:42:51;;;;;;;27.00;16.17;;;3.60;99.90;;;;;;5019863;28;20029;-88
2021/12/27 03:45:19;;;;;;;32.75;18.25;;;3.60;99.90;;;;;;5019738;28;20075;-88
2021/12/27 03:47:45;;;;;;;30.92;17.23;;;3.60;99.90;;;;;;5053836;28;20096;-88
2021/12/27 03:50:11;;;;;;;32.35;17.55;;;3.60;99.90;;;;;;5054124;28;20029;-88
2021/12/27 03:52:37;;;;;;;30.73;17.90;;;3.60;99.90;;;;;;5003458;28;20463;-88
2021/12/27 03:55:04;;;;;;;26.75;16.25;;;3.60;99.90;;;;;;5019636;28;20043;-88
2021/12/27 03:57:32;;;;;;;27.63;15.95;;;3.60;99.90;;;;;;5036143;28;20028;-89
2021/12/27 04:02:42;;;;;;;28.98;17.10;;;3.60;99.90;;;;;;5029219;28;20107;-88
2021/12/27 04:05:11;;;;;;;29.27;16.55;;;3.60;99.90;;;;;;5039645;28;20022;-88
2021/12/27 04:07:38;;;;;;;27.33;16.23;;;3.60;99.90;;;;;;5023544;28;20036;-89
2021/12/27 04:10:07;;;;;;;33.30;19.38;;;3.60;99.90;;;;;;5039479;28;20495;-88
2021/12/27 04:12:34;;;;;;;33.10;17.45;;;3.60;99.90;;;;;;5039549;28;20036;-88
2021/12/27 04:15:00;;;;;;;40.90;20.42;;;3.60;99.90;;;;;;5039754;28;20017;-88
2021/12/27 04:17:26;;;;;;;31.50;17.13;;;3.70;99.90;;;;;;5039367;28;20075;-88
2021/12/27 04:19:52;;;;;;;37.40;21.10;;;3.60;99.90;;;;;;5022834;28;20029;-88
2021/12/27 04:22:17;;;;;;;37.38;18.70;;;3.60;99.90;;;;;;5039243;28;20391;-88
2021/12/27 04:24:43;;;;;;;30.08;17.63;;;3.60;99.90;;;;;;5006180;28;20486;-89
2021/12/27 04:27:09;;;;;;;32.20;17.20;;;3.60;99.90;;;;;;5039004;28;20052;-88
2021/12/27 04:29:35;;;;;;;32.70;17.52;;;3.60;99.90;;;;;;5022337;28;20033;-88
2021/12/27 04:32:01;;;;;;;32.80;17.05;;;3.70;99.90;;;;;;5022673;28;20543;-88
2021/12/27 04:34:26;;;;;;;41.20;20.42;;;3.60;99.90;;;;;;5039114;28;20067;-89
2021/12/27 04:36:52;;;;;;;38.95;17.77;;;3.70;99.90;;;;;;5038985;28;20020;-89
2021/12/27 04:39:17;;;;;;;39.97;19.95;;;3.70;99.90;;;;;;5022551;28;20051;-88
2021/12/27 04:41:43;;;;;;;36.67;18.85;;;3.70;99.90;;;;;;5022245;28;20115;-88
2021/12/27 04:44:09;;;;;;;33.15;17.42;;;3.70;99.90;;;;;;5038890;28;20029;-89
2021/12/27 04:46:35;;;;;;;30.25;17.65;;;3.70;99.90;;;;;;5022247;28;20032;-88
2021/12/27 04:49:00;;;;;;;32.17;17.10;;;3.70;99.90;;;;;;5038902;28;20033;-88
2021/12/27 04:51:26;;;;;;;34.00;15.98;;;3.70;99.90;;;;;;5038689;28;20036;-88
2021/12/27 04:53:53;;;;;;;35.08;17.10;;;3.70;99.90;;;;;;5056313;28;20052;-88
2021/12/27 04:56:19;;;;;;;33.75;17.23;;;3.70;99.90;;;;;;5056509;28;20025;-88
2021/12/27 04:58:46;;;;;;;31.13;17.85;;;3.80;99.90;;;;;;5038898;28;20013;-88
2021/12/27 05:01:13;;;;;;;30.92;16.83;;;3.80;99.90;;;;;;5039111;28;20021;-88
2021/12/27 05:03:47;;;;;;;39.90;19.92;;;3.70;99.90;;;;;;5039285;28;20393;-88
2021/12/27 05:06:13;;;;;;;31.08;17.98;;;3.80;99.90;;;;;;5018460;28;20037;-89
2021/12/27 05:08:40;;;;;;;37.13;18.90;;;3.80;99.90;;;;;;5002332;28;20386;-89
2021/12/27 05:11:07;;;;;;;35.83;18.88;;;3.80;99.90;;;;;;5018000;28;20483;-88
2021/12/27 05:13:33;;;;;;;34.10;18.85;;;3.70;99.90;;;;;;5002396;28;20479;-89
2021/12/27 05:16:01;;;;;;;33.13;17.63;;;3.80;99.90;;;;;;4986153;28;20112;-88
2021/12/27 05:18:26;;;;;;;34.30;17.50;;;3.80;99.90;;;;;;5018429;28;20032;-89
2021/12/27 05:20:53;;;;;;;38.75;19.92;;;3.80;99.90;;;;;;5002032;28;20442;-89
2021/12/27 05:23:21;;;;;;;30.75;17.20;;;3.90;99.90;;;;;;5018366;28;20029;-89
2021/12/27 05:25:53;;;;;;;35.88;18.58;;;3.80;99.90;;;;;;5018525;28;20132;-89
2021/12/27 05:28:19;;;;;;;45.45;20.73;;;3.90;99.90;;;;;;5018565;28;20036;-89
2021/12/27 05:30:48;;;;;;;36.45;18.10;;;3.80;99.90;;;;;;5002208;28;20017;-89
2021/12/27 05:33:15;;;;;;;31.85;17.90;;;3.80;99.90;;;;;;5018300;28;20547;-89
2021/12/27 05:35:42;;;;;;;28.08;16.90;;;3.90;99.90;;;;;;5018328;28;20029;-88
2021/12/27 05:38:08;;;;;;;30.27;16.85;;;3.90;99.90;;;;;;5018528;28;20025;-88
2021/12/27 05:40:34;;;;;;;28.73;16.92;;;3.90;99.90;;;;;;5035536;28;20097;-88
2021/12/27 05:43:00;;;;;;;31.38;17.48;;;3.90;99.90;;;;;;5001556;28;20064;-88
2021/12/27 05:45:26;;;;;;;27.08;15.60;;;3.90;99.90;;;;;;5018030;28;20060;-88
2021/12/27 05:47:52;;;;;;;24.20;15.77;;;4.00;99.90;;;;;;5017832;28;20029;-88
2021/12/27 05:50:19;;;;;;;34.92;16.67;;;3.90;99.90;;;;;;5002169;28;20025;-88
2021/12/27 05:52:45;;;;;;;32.25;17.13;;;3.90;99.90;;;;;;5001571;28;20383;-88
2021/12/27 05:55:11;;;;;;;31.40;18.67;;;3.90;99.90;;;;;;5017553;28;20037;-88
2021/12/27 05:57:38;;;;;;;28.52;16.30;;;3.90;99.90;;;;;;5017517;28;20513;-88
2021/12/27 06:00:06;;;;;;;32.92;19.02;;;3.90;99.90;;;;;;5025341;28;20021;-88
2021/12/27 06:02:43;;;;;;;32.85;17.60;;;4.00;99.90;;;;;;5053749;28;20021;-88
2021/12/27 06:05:10;;;;;;;38.42;17.77;;;4.00;99.90;;;;;;5037381;28;20017;-88
2021/12/27 06:07:36;;;;;;;35.05;17.92;;;4.00;99.90;;;;;;5021139;28;20032;-88
2021/12/27 06:10:02;;;;;;;35.65;17.92;;;4.00;99.90;;;;;;5037205;28;20056;-88
2021/12/27 06:12:28;;;;;;;39.15;20.15;;;4.00;99.90;;;;;;5020789;28;20025;-88
2021/12/27 06:14:54;;;;;;;44.95;21.50;;;4.00;99.90;;;;;;5020510;28;20048;-87
2021/12/27 06:17:26;;;;;;;42.80;21.95;;;4.00;99.90;;;;;;5053235;28;20059;-88
2021/12/27 06:19:55;;;;;;;42.75;21.42;;;4.00;99.90;;;;;;5036414;28;20421;-89
2021/12/27 06:22:21;;;;;;;43.53;21.30;;;4.10;99.90;;;;;;5050248;28;20474;-89
2021/12/27 06:24:47;;;;;;;38.25;20.30;;;4.10;99.90;;;;;;5033251;28;20103;-89
2021/12/27 06:27:17;;;;;;;37.67;19.60;;;4.10;99.90;;;;;;5053958;28;20020;-87
2021/12/27 06:29:43;;;;;;;36.75;18.83;;;4.10;99.90;;;;;;5036809;28;20029;-88
2021/12/27 06:32:13;;;;;;;37.47;20.50;;;4.10;99.90;;;;;;5035909;28;20079;-89
2021/12/27 06:34:40;;;;;;;37.47;19.88;;;4.10;99.90;;;;;;5020975;28;20059;-89
2021/12/27 06:37:06;;;;;;;32.63;18.20;;;4.20;99.90;;;;;;5020196;28;20021;-89
2021/12/27 06:39:32;;;;;;;27.98;17.08;;;4.20;99.90;;;;;;5020119;28;20025;-89
2021/12/27 06:41:57;;;;;;;31.95;17.92;;;4.20;99.90;;;;;;5020038;28;20040;-89
2021/12/27 06:44:23;;;;;;;31.75;17.70;;;4.20;99.90;;;;;;5020177;28;20025;-89
2021/12/27 06:46:49;;;;;;;34.45;18.80;;;4.20;99.90;;;;;;5018524;28;20025;-89
2021/12/27 06:49:15;;;;;;;31.75;17.58;;;4.20;99.90;;;;;;5034530;28;20375;-89
2021/12/27 06:51:41;;;;;;;34.75;18.80;;;4.20;99.90;;;;;;4994292;28;20033;-89
2021/12/27 06:54:06;;;;;;;33.05;17.85;;;4.30;99.90;;;;;;5014461;28;20040;-89
2021/12/27 06:56:32;;;;;;;33.95;18.77;;;4.30;99.90;;;;;;5036466;28;20029;-88
2021/12/27 06:58:59;;;;;;;34.40;17.75;;;4.30;99.90;;;;;;5053986;28;20086;-89
2021/12/27 07:01:25;;;;;;;37.60;17.90;;;4.30;99.90;;;;;;5036258;28;20067;-88
2021/12/27 07:03:50;;;;;;;32.13;17.17;;;4.30;99.90;;;;;;5019980;28;20033;-88
2021/12/27 07:06:16;;;;;;;32.30;17.25;;;4.40;99.90;;;;;;5020403;28;20376;-88
2021/12/27 07:08:43;;;;;;;40.08;19.70;;;4.40;99.90;;;;;;5020010;28;20029;-88
2021/12/27 07:11:08;;;;;;;39.85;19.52;;;4.40;99.90;;;;;;5020047;28;20454;-88
2021/12/27 07:13:34;;;;;;;39.78;18.65;;;4.40;99.90;;;;;;5033235;28;20120;-90
2021/12/27 07:16:00;;;;;;;38.58;19.08;;;4.40;99.90;;;;;;5002774;28;20497;-89
2021/12/27 07:18:27;;;;;;;35.58;18.40;;;4.40;99.90;;;;;;5048304;28;20123;-89
2021/12/27 07:20:54;;;;;;;30.00;17.20;;;4.40;99.90;;;;;;5013813;28;20028;-89
2021/12/27 07:23:20;;;;;;;32.70;18.33;;;4.50;99.90;;;;;;5034116;28;20025;-89
2021/12/27 07:25:46;;;;;;;26.48;16.02;;;4.50;99.90;;;;;;5034287;28;20068;-89
2021/12/27 07:28:12;;;;;;;32.63;17.33;;;4.50;99.90;;;;;;5019368;28;20021;-89
2021/12/27 07:30:38;;;;;;;29.08;16.15;;;4.50;99.90;;;;;;5035388;28;20021;-89
2021/12/27 07:33:05;;;;;;;30.67;17.02;;;4.50;99.90;;;;;;5018978;28;20182;-89
2021/12/27 07:35:31;;;;;;;33.63;17.92;;;4.50;99.90;;;;;;5018734;28;20367;-88
2021/12/27 07:37:57;;;;;;;33.55;16.90;;;4.50;99.90;;;;;;5038156;28;20102;-89
2021/12/27 07:40:25;;;;;;;33.80;17.33;;;4.50;99.90;;;;;;5039175;28;20037;-89
2021/12/27 07:42:51;;;;;;;36.80;19.30;;;4.50;99.90;;;;;;5023353;28;20040;-89
2021/12/27 07:45:17;;;;;;;34.75;19.08;;;4.60;99.90;;;;;;5023203;28;20470;-88
2021/12/27 07:47:43;;;;;;;36.78;19.10;;;4.60;99.90;;;;;;5039408;28;20013;-89
2021/12/27 07:50:09;;;;;;;32.60;17.80;;;4.60;99.90;;;;;;5022449;28;20068;-90
2021/12/27 07:52:34;;;;;;;26.42;16.55;;;4.60;99.90;;;;;;5023307;28;20417;-88
2021/12/27 07:55:00;;;;;;;40.67;20.05;;;4.60;99.90;;;;;;5023067;28;20087;-90
2021/12/27 07:57:26;;;;;;;38.38;19.58;;;4.60;99.90;;;;;;5039637;28;20174;-90
2021/12/27 07:59:51;;;;;;;29.67;17.33;;;4.60;99.90;;;;;;5039478;28;20040;-90
2021/12/27 08:02:17;;;;;;;37.85;19.75;;;4.60;99.90;;;;;;5039808;28;20029;-89
2021/12/27 08:04:44;;;;;;;33.53;17.52;;;4.60;99.90;;;;;;5022284;28;20087;-89
2021/12/27 08:07:10;;;;;;;35.92;19.05;;;4.60;99.90;;;;;;5038881;28;20028;-89
2021/12/27 08:09:37;;;;;;;41.85;20.60;;;4.70;99.90;;;;;;5037354;28;20029;-89
2021/12/27 08:12:03;;;;;;;41.22;19.45;;;4.60;99.90;;;;;;5039531;28;20025;-89
2021/12/27 08:14:29;;;;;;;34.42;18.15;;;4.60;99.90;;;;;;5039277;28;20029;-89
2021/12/27 08:16:55;;;;;;;35.10;19.42;;;4.60;99.90;;;;;;5038387;28;20390;-90
2021/12/27 08:19:20;;;;;;;35.53;18.63;;;4.60;99.90;;;;;;5006519;28;20466;-89
2021/12/27 08:21:46;;;;;;;28.80;17.30;;;4.60;99.90;;;;;;5022877;28;20021;-90
2021/12/27 08:24:12;;;;;;;28.40;16.42;;;4.60;99.90;;;;;;5039202;28;20032;-90
2021/12/27 08:26:38;;;;;;;27.60;16.75;;;4.70;99.90;;;;;;5021198;28;20044;-90
2021/12/27 08:29:08;;;;;;;32.33;17.98;;;4.70;99.90;;;;;;5035924;28;20074;-90
2021/12/27 08:31:35;;;;;;;33.55;18.20;;;4.70;99.90;;;;;;5040066;28;20033;-90
2021/12/27 08:34:01;;;;;;;37.10;19.33;;;4.70;99.90;;;;;;5039107;28;20079;-89
2021/12/27 08:36:27;;;;;;;33.05;17.70;;;4.70;99.90;;;;;;5038536;28;20414;-89
2021/12/27 08:38:53;;;;;;;32.10;17.33;;;4.70;99.90;;;;;;5022484;28;20032;-89
2021/12/27 08:41:19;;;;;;;29.77;17.77;;;4.70;99.90;;;;;;5022945;28;20033;-90
2021/12/27 08:43:46;;;;;;;37.20;19.08;;;4.70;99.90;;;;;;5039553;28;20036;-90
2021/12/27 08:46:12;;;;;;;36.22;18.05;;;4.70;99.90;;;;;;5038173;28;20529;-91
2021/12/27 08:48:40;;;;;;;30.88;16.73;;;4.70;99.90;;;;;;5039125;28;20479;-90
2021/12/27 08:51:06;;;;;;;34.92;18.55;;;4.80;99.90;;;;;;5039191;28;20041;-89
2021/12/27 08:53:31;;;;;;;25.48;15.23;;;4.80;99.90;;;;;;5022627;28;20044;-89
2021/12/27 08:55:58;;;;;;;28.98;16.48;;;4.80;99.90;;;;;;5038958;28;20079;-89
2021/12/27 08:58:31;;;;;;;27.17;15.25;;;4.80;99.90;;;;;;5038730;28;20033;-90
2021/12/27 09:00:57;;;;;;;24.92;14.20;;;4.80;99.90;;;;;;5023586;28;20032;-89
2021/12/27 09:03:29;;;;;;;22.88;13.60;;;4.80;99.90;;;;;;5038210;28;20468;-90
2021/12/27 09:05:55;;;;;;;22.02;14.40;;;4.80;99.90;;;;;;5006790;28;20025;-89
2021/12/27 09:08:25;;;;;;;25.17;14.57;;;4.80;99.90;;;;;;5022310;28;20489;-90
2021/12/27 09:10:51;;;;;;;23.60;13.87;;;4.80;99.90;;;;;;5038584;28;20037;-89
2021/12/27 09:13:18;;;;;;;24.85;15.43;;;4.80;99.90;;;;;;5005653;28;20303;-89
2021/12/27 09:15:45;;;;;;;25.67;14.73;;;4.80;99.90;;;;;;5006042;28;20020;-90
2021/12/27 09:18:15;;;;;;;24.15;14.57;;;4.80;99.90;;;;;;5021685;28;20044;-90
2021/12/27 09:20:41;;;;;;;31.15;15.48;;;4.80;99.90;;;;;;5038214;28;20024;-90
2021/12/27 09:23:14;;;;;;;24.38;14.98;;;4.80;99.90;;;;;;5038801;28;20033;-90
2021/12/27 09:25:42;;;;;;;27.05;14.73;;;4.90;99.90;;;;;;5035577;28;20505;-89
2021/12/27 09:28:29;;;;;;;28.67;15.98;;;4.90;99.90;;;;;;5038653;28;20029;-89
2021/12/27 09:30:55;;;;;;;28.10;14.93;;;5.00;99.90;;;;;;5036843;28;20053;-89
2021/12/27 09:33:22;;;;;;;30.40;16.33;;;4.90;99.90;;;;;;5037970;28;20454;-90
2021/12/27 09:35:49;;;;;;;30.02;17.00;;;5.00;99.90;;;;;;5005151;28;20091;-90
2021/12/27 09:38:15;;;;;;;26.67;14.93;;;4.90;99.90;;;;;;5043586;23;20408;-90
2021/12/27 09:40:41;;;;;;;25.25;15.15;;;5.00;99.90;;;;;;5055010;28;20025;-90
2021/12/27 09:43:08;;;;;;;26.42;15.20;;;5.00;99.90;;;;;;5038245;28;20029;-90
2021/12/27 09:45:33;;;;;;;25.20;14.30;;;5.00;99.90;;;;;;5054951;28;20485;-90
2021/12/27 09:47:59;;;;;;;25.30;15.45;;;5.10;99.90;;;;;;5055096;28;20013;-91
2021/12/27 09:50:33;;;;;;;26.05;15.68;;;5.00;99.90;;;;;;5021891;28;20378;-91
2021/12/27 09:52:58;;;;;;;26.65;15.65;;;5.10;99.90;;;;;;5054777;28;20485;-90
2021/12/27 09:55:27;;;;;;;29.23;16.63;;;5.00;99.90;;;;;;5037945;28;20031;-89
2021/12/27 09:57:54;;;;;;;28.70;16.88;;;5.10;99.90;;;;;;5054195;28;20119;-90
2021/12/27 10:00:20;;;;;;;28.55;16.08;;;5.10;99.90;;;;;;5054662;28;20032;-90
2021/12/27 10:02:51;;;;;;;25.17;15.52;;;5.10;99.90;;;;;;5037849;28;20021;-90
2021/12/27 10:05:18;;;;;;;29.75;17.27;;;5.20;99.90;;;;;;5053218;28;20021;-90
2021/12/27 10:07:44;;;;;;;28.30;15.48;;;5.20;99.90;;;;;;5043889;28;20543;-89
2021/12/27 10:10:10;;;;;;;27.88;15.70;;;5.20;99.90;;;;;;5054313;28;20458;-89
2021/12/27 10:12:37;;;;;;;29.10;16.52;;;5.30;99.90;;;;;;5046144;28;20032;-90
2021/12/27 10:15:21;;;;;;;24.92;15.35;;;5.30;99.90;;;;;;5038116;28;20044;-87
2021/12/27 10:17:48;;;;;;;31.25;17.95;;;5.40;99.90;;;;;;5030716;28;20021;-88
2021/12/27 10:20:22;;;;;;;27.45;15.80;;;5.40;99.90;;;;;;5053418;28;20013;-88
2021/12/27 10:22:54;;;;;;;27.48;15.73;;;5.40;99.90;;;;;;5035263;28;20463;-88
2021/12/27 10:25:23;;;;;;;31.33;17.35;;;5.50;99.90;;;;;;5035385;28;20040;-88
2021/12/27 10:27:56;;;;;;;26.90;16.38;;;5.50;99.90;;;;;;5033850;28;20025;-89
2021/12/27 10:30:24;;;;;;;28.35;15.95;;;5.50;99.90;;;;;;5021419;28;20032;-88
2021/12/27 10:33:14;;;;;;;29.02;17.63;;;5.50;99.90;;;;;;5030542;28;20033;-88
2021/12/27 10:35:45;;;;;;;26.73;15.65;;;5.60;99.90;;;;;;5035119;28;20036;-88
2021/12/27 10:38:31;;;;;;;31.65;18.05;;;5.60;99.90;;;;;;5036233;28;20025;-88
2021/12/27 10:41:09;;;;;;;28.25;17.25;;;5.60;99.90;;;;;;5044282;28;20068;-87
2021/12/27 10:43:45;;;;;;;31.98;16.80;;;5.70;99.90;;;;;;5031980;28;20028;-88
2021/12/27 10:46:13;;;;;;;28.38;16.13;;;5.70;99.90;;;;;;5036433;28;20020;-87
2021/12/27 10:48:42;;;;;;;24.35;16.33;;;5.70;99.90;;;;;;5037002;28;20013;-87
2021/12/27 10:51:09;;;;;;;27.45;16.42;;;5.70;99.90;;;;;;5054916;28;20451;-88
2021/12/27 10:53:47;;;;;;;31.10;18.27;;;5.80;99.90;;;;;;5035901;28;20067;-90
2021/12/27 10:56:13;;;;;;;24.30;15.73;;;5.80;99.90;;;;;;5032533;28;20112;-87
2021/12/27 10:58:46;;;;;;;28.35;16.85;;;5.80;99.90;;;;;;5036716;28;20025;-89
2021/12/27 11:01:19;;;;;;;31.00;17.98;;;5.90;99.90;;;;;;5036915;28;20024;-89
2021/12/27 11:03:47;;;;;;;26.77;16.92;;;5.90;99.90;;;;;;5036101;28;20056;-88
2021/12/27 11:06:17;;;;;;;31.55;17.17;;;6.00;99.90;;;;;;5020158;28;20029;-89
2021/12/27 11:08:45;;;;;;;26.73;16.40;;;6.00;99.90;;;;;;5035918;28;20029;-88
2021/12/27 11:11:11;;;;;;;28.00;16.95;;;6.10;99.90;;;;;;5017218;28;20034;-88
2021/12/27 11:13:38;;;;;;;27.90;16.58;;;6.10;99.90;;;;;;5017750;28;20026;-88
2021/12/27 11:16:05;;;;;;;26.35;16.95;;;6.20;99.90;;;;;;5033323;28;20028;-88
2021/12/27 11:18:31;;;;;;;24.23;16.15;;;6.30;99.90;;;;;;5036533;28;20096;-88
2021/12/27 11:21:00;;;;;;;26.55;17.08;;;6.40;99.90;;;;;;5019513;28;20567;-89
2021/12/27 11:23:52;;;;;;;28.20;16.60;;;6.40;99.90;;;;;;5052987;28;20047;-88
2021/12/27 11:26:42;;;;;;;26.75;16.50;;;6.50;99.90;;;;;;5019457;28;20524;-88
2021/12/27 11:29:20;;;;;;;25.52;16.42;;;6.60;99.90;;;;;;5035567;28;20573;-89
2021/12/27 11:31:52;;;;;;;26.58;17.65;;;6.60;99.90;;;;;;5035931;28;20039;-89
2021/12/27 11:34:19;;;;;;;31.45;18.55;;;6.60;99.90;;;;;;5036838;28;20219;-88
2021/12/27 11:36:49;;;;;;;26.58;17.60;;;6.70;99.90;;;;;;5018619;28;20032;-88
2021/12/27 11:39:30;;;;;;;27.67;17.85;;;6.70;99.90;;;;;;5034781;28;20041;-88
2021/12/27 11:42:03;;;;;;;26.83;17.25;;;6.80;99.90;;;;;;5054202;28;20029;-89
2021/12/27 11:44:36;;;;;;;27.75;18.50;;;6.80;99.90;;;;;;5036021;28;20025;-88
2021/12/27 11:47:03;;;;;;;22.10;15.50;;;6.80;99.90;;;;;;5053848;28;20618;-88
2021/12/27 11:49:31;;;;;;;27.60;15.85;;;6.90;99.90;;;;;;5053181;28;20029;-89
2021/12/27 11:52:12;;;;;;;21.23;14.52;;;6.90;99.90;;;;;;5036068;28;20120;-88
2021/12/27 11:55:25;;;;;;;22.23;14.45;;;7.00;99.90;;;;;;5052628;28;20070;-89
2021/12/27 11:57:55;;;;;;;22.13;13.18;;;7.00;99.90;;;;;;5036141;28;20458;-88
2021/12/27 12:00:24;;;;;;;21.77;13.38;;;7.00;99.90;;;;;;5019997;28;20029;-88
2021/12/27 12:03:10;;;;;;;21.95;12.55;;;7.00;99.90;;;;;;5052836;28;20029;-88
2021/12/27 12:05:43;;;;;;;19.50;12.25;;;7.10;99.90;;;;;;5036184;28;20036;-89
2021/12/27 12:08:20;;;;;;;20.13;12.10;;;7.10;99.90;;;;;;5035520;28;20138;-88
2021/12/27 12:11:08;;;;;;;21.30;12.93;;;7.10;99.90;;;;;;5036018;28;20160;-88
2021/12/27 12:13:37;;;;;;;19.77;12.40;;;7.20;99.90;;;;;;5019425;28;20037;-89
2021/12/27 12:16:09;;;;;;;22.88;12.73;;;7.30;99.90;;;;;;5036006;28;20025;-88
2021/12/27 12:18:41;;;;;;;17.95;12.40;;;7.30;99.90;;;;;;5019367;28;20032;-88
2021/12/27 12:21:33;;;;;;;19.73;12.05;;;7.30;99.90;;;;;;5036132;28;20021;-89
2021/12/27 12:24:10;;;;;;;18.02;11.57;;;7.40;99.90;;;;;;5056215;28;20174;-88
2021/12/27 12:26:47;;;;;;;20.65;12.52;;;7.40;99.90;;;;;;5039603;28;20501;-87
2021/12/27 12:29:12;;;;;;;21.00;12.73;;;7.40;99.90;;;;;;5057587;28;20103;-88
2021/12/27 12:31:38;;;;;;;19.48;12.20;;;7.40;99.90;;;;;;5006687;28;20571;-88
2021/12/27 12:34:12;;;;;;;16.45;11.20;;;7.50;99.90;;;;;;5022668;28;20025;-88
2021/12/27 12:37:06;;;;;;;16.83;11.40;;;7.50;99.90;;;;;;5023568;28;20028;-89
2021/12/27 12:39:40;;;;;;;18.08;11.05;;;7.50;99.90;;;;;;5054068;28;20060;-89
2021/12/27 12:42:13;;;;;;;18.50;12.55;;;7.50;99.90;;;;;;5039225;28;20492;-89
2021/12/27 12:44:59;;;;;;;17.85;11.70;;;7.50;99.90;;;;;;5039453;28;20041;-88
2021/12/27 12:47:34;;;;;;;17.48;11.00;;;7.60;99.90;;;;;;5038992;28;20497;-89
2021/12/27 12:50:16;;;;;;;17.77;11.93;;;7.60;99.90;;;;;;5039136;28;20056;-89
2021/12/27 12:52:51;;;;;;;17.80;11.75;;;7.60;99.90;;;;;;5054924;28;20036;-89
2021/12/27 12:55:21;;;;;;;15.65;10.32;;;7.70;99.90;;;;;;5038809;28;20020;-90